Time;durP1;ratioP1;P1;durP2;ratioP2;P2;SDS_P1;SDS_P2;PMS_P1;PMS_P2;Temp;Humidity;BMP_temperature;BMP_pressure;BME280_temperature;BME280_humidity;BME280_pressure;Samples;Min_cycle;Max_cycle;Signal;HPM_P1;HPM_P2
2022/09/09 00:00:26;;;;;;;1.40;0.60;;;;;;;20.46;55.17;96365.50;10548105;28;20039;-26
2022/09/09 00:05:42;;;;;;;2.08;0.73;;;;;;;20.45;55.45;96366.34;10553539;28;20103;-27
2022/09/09 00:10:43;;;;;;;1.42;0.50;;;;;;;20.38;55.20;96359.66;10537922;28;20039;-26
2022/09/09 00:16:02;;;;;;;1.90;0.68;;;;;;;20.38;55.60;96356.28;10546286;28;20035;-26
2022/09/09 00:21:11;;;;;;;3.30;1.02;;;;;;;20.37;55.48;96356.31;10552190;28;20478;-27
2022/09/09 00:26:37;;;;;;;3.50;0.47;;;;;;;20.32;55.31;96365.69;10552957;28;20031;-27
2022/09/09 00:31:38;;;;;;;3.33;1.27;;;;;;;20.36;55.41;96367.34;10551512;28;20062;-27
2022/09/09 00:36:40;;;;;;;2.00;0.73;;;;;;;20.37;55.60;96363.94;10530657;28;20034;-26
2022/09/09 00:41:58;;;;;;;1.45;0.60;;;;;;;20.38;55.24;96371.56;10553597;28;20147;-26
2022/09/09 00:47:25;;;;;;;2.85;0.88;;;;;;;20.42;55.27;96372.34;10545423;28;20038;-27
2022/09/09 00:52:39;;;;;;;4.18;0.60;;;;;;;20.43;55.64;96379.94;10550567;28;20027;-26
2022/09/09 00:57:41;;;;;;;4.90;1.10;;;;;;;20.39;55.61;96383.41;10534045;28;20393;-27
2022/09/09 01:02:51;;;;;;;1.98;0.63;;;;;;;20.37;55.42;96374.09;10540383;28;20074;-26
2022/09/09 01:07:51;;;;;;;1.67;0.80;;;;;;;20.33;55.65;96357.22;10557210;28;20040;-26
2022/09/09 01:12:53;;;;;;;3.27;0.97;;;;;;;20.32;55.27;96360.59;10556838;28;20036;-28
2022/09/09 01:18:04;;;;;;;6.20;0.60;;;;;;;20.33;55.53;96359.78;10546772;28;20285;-26
2022/09/09 01:23:25;;;;;;;2.10;0.45;;;;;;;20.34;55.43;96353.81;10547468;28;20035;-26
2022/09/09 01:28:55;;;;;;;1.83;0.43;;;;;;;20.32;55.78;96356.38;10536891;28;20040;-26
2022/09/09 01:34:10;;;;;;;1.20;0.73;;;;;;;20.38;55.77;96350.34;10551952;28;20123;-27
2022/09/09 01:39:12;;;;;;;2.15;0.70;;;;;;;20.38;55.92;96344.41;10549032;28;20032;-26
2022/09/09 01:44:13;;;;;;;2.60;0.85;;;;;;;20.36;55.72;96357.16;10549049;28;20036;-26
2022/09/09 01:49:18;;;;;;;4.38;1.10;;;;;;;20.33;55.50;96363.13;10546575;28;20052;-27
2022/09/09 01:54:22;;;;;;;1.00;0.73;;;;;;;20.31;55.65;96366.53;10544933;28;20046;-26
2022/09/09 01:59:25;;;;;;;1.70;0.80;;;;;;;20.37;55.74;96371.56;10537001;28;20039;-26
2022/09/09 02:04:29;;;;;;;3.78;0.77;;;;;;;20.35;55.70;96376.66;10549235;28;20081;-27
2022/09/09 02:09:30;;;;;;;1.73;0.60;;;;;;;20.31;56.40;96385.19;10554932;28;20035;-26
2022/09/09 02:14:38;;;;;;;2.08;0.70;;;;;;;20.30;56.61;96386.06;10541318;28;20076;-27
2022/09/09 02:19:48;;;;;;;;;;;;;;;20.38;56.32;96385.94;10554257;28;20031;-26
2022/09/09 02:25:06;;;;;;;1.67;0.90;;;;;;;20.42;56.59;96376.59;10538549;28;19916;-26
2022/09/09 02:30:09;;;;;;;3.00;1.08;;;;;;;20.39;57.17;96384.22;10543179;28;20027;-25
2022/09/09 02:35:20;;;;;;;1.63;0.80;;;;;;;20.30;57.50;96363.19;10537174;28;20035;-26
2022/09/09 02:40:21;;;;;;;1.40;0.67;;;;;;;20.36;57.62;96372.44;10544546;28;20034;-27
2022/09/09 02:45:42;;;;;;;3.05;0.85;;;;;;;20.32;57.70;96381.78;10542512;28;20032;-26
2022/09/09 02:51:23;;;;;;;1.95;0.60;;;;;;;20.33;57.95;96375.03;10525128;28;20028;-26
2022/09/09 02:56:28;;;;;;;2.92;1.00;;;;;;;20.24;58.20;96363.25;10540461;28;20031;-27
2022/09/09 03:01:29;;;;;;;3.47;0.70;;;;;;;20.31;58.00;96380.13;10538304;28;20028;-25
2022/09/09 03:06:30;;;;;;;3.42;0.75;;;;;;;20.35;58.07;96381.75;10539921;28;20038;-26
2022/09/09 03:11:39;;;;;;;2.72;0.75;;;;;;;20.38;58.19;96376.63;10539558;28;20028;-27
2022/09/09 03:16:42;;;;;;;1.70;0.77;;;;;;;20.31;58.31;96364.00;10538819;28;20035;-27
2022/09/09 03:21:47;;;;;;;3.40;0.70;;;;;;;20.26;58.37;96363.25;10552249;28;20492;-26
2022/09/09 03:26:48;;;;;;;2.95;0.80;;;;;;;20.31;58.34;96369.09;10555765;28;20066;-27
2022/09/09 03:31:51;;;;;;;2.05;0.50;;;;;;;20.30;58.59;96375.03;10542716;28;20032;-25
2022/09/09 03:36:52;;;;;;;2.58;0.77;;;;;;;20.31;58.49;96369.09;10539182;28;20529;-27
2022/09/09 03:41:53;;;;;;;2.63;0.77;;;;;;;20.31;58.43;96374.19;10548880;28;20078;-27
2022/09/09 03:46:54;;;;;;;1.60;0.75;;;;;;;20.36;58.83;96362.25;10548299;28;20115;-27
2022/09/09 03:51:57;;;;;;;3.20;0.93;;;;;;;20.38;58.35;96362.22;10535077;28;20448;-26
2022/09/09 03:56:58;;;;;;;2.75;0.90;;;;;;;20.39;58.44;96366.44;10544941;28;20036;-26
2022/09/09 04:01:59;;;;;;;2.47;0.65;;;;;;;20.36;58.46;96358.00;10541205;28;20063;-26
2022/09/09 04:06:59;;;;;;;2.38;0.75;;;;;;;20.35;58.52;96356.31;10536801;28;20415;-25
2022/09/09 04:12:00;;;;;;;1.17;0.70;;;;;;;20.36;58.67;96358.00;10540817;28;20028;-27
2022/09/09 04:17:00;;;;;;;2.08;0.68;;;;;;;20.38;58.70;96363.06;10540559;28;20277;-27
2022/09/09 04:22:01;;;;;;;3.25;0.70;;;;;;;20.35;58.82;96371.56;10542329;28;20028;-26
2022/09/09 04:27:01;;;;;;;2.27;0.63;;;;;;;20.34;58.81;96374.16;10542281;28;20035;-26
2022/09/09 04:32:02;;;;;;;2.30;0.68;;;;;;;20.34;58.85;96374.16;10550843;28;20293;-27
2022/09/09 04:37:03;;;;;;;1.58;0.65;;;;;;;20.39;58.83;96370.69;10546213;28;20059;-26
2022/09/09 04:42:04;;;;;;;0.95;0.43;;;;;;;20.39;58.79;96376.59;10551467;28;20477;-26
2022/09/09 04:47:04;;;;;;;1.67;0.60;;;;;;;20.45;58.52;96378.25;10549575;28;20031;-28
2022/09/09 04:52:06;;;;;;;2.53;0.68;;;;;;;20.34;59.02;96379.25;10538957;28;20034;-26
2022/09/09 04:57:10;;;;;;;5.18;0.70;;;;;;;20.33;58.93;96370.75;10549250;28;20127;-27
2022/09/09 05:02:11;;;;;;;4.18;1.00;;;;;;;20.34;59.12;96358.91;10548188;28;20032;-26
2022/09/09 05:07:13;;;;;;;2.05;0.75;;;;;;;20.34;58.71;96359.72;10538443;28;20545;-26
2022/09/09 05:12:14;;;;;;;1.38;0.68;;;;;;;20.33;58.74;96368.22;10546501;28;20028;-26
2022/09/09 05:17:21;;;;;;;1.75;0.65;;;;;;;20.34;59.17;96369.06;10546346;28;20057;-26
2022/09/09 05:22:23;;;;;;;8.30;1.80;;;;;;;20.48;58.92;96379.03;10542759;28;20084;-26
2022/09/09 05:27:24;;;;;;;9.70;1.02;;;;;;;20.53;58.36;96379.81;10547168;28;20092;-27
2022/09/09 05:32:26;;;;;;;5.38;1.27;;;;;;;20.77;58.34;96371.84;10530864;28;20559;-27
2022/09/09 05:37:27;;;;;;;7.10;1.45;;;;;;;20.92;57.93;96370.81;10534518;28;20028;-27
2022/09/09 05:42:32;;;;;;;4.88;1.00;;;;;;;20.87;57.99;96367.50;10542796;28;20444;-27
2022/09/09 05:47:33;;;;;;;3.07;1.50;;;;;;;20.84;57.62;96370.91;10549389;28;20529;-25
2022/09/09 05:52:34;;;;;;;4.00;0.80;;;;;;;20.87;57.81;96378.50;10535701;28;20043;-26
2022/09/09 05:57:34;;;;;;;3.43;0.60;;;;;;;20.87;58.03;96385.31;10547103;28;20039;-27
2022/09/09 06:02:36;;;;;;;3.17;1.00;;;;;;;20.89;58.22;96386.94;10540807;28;20428;-27
2022/09/09 06:07:37;;;;;;;8.02;0.80;;;;;;;20.85;58.29;96386.97;10551864;28;20531;-27
2022/09/09 06:12:38;;;;;;;7.97;1.23;;;;;;;20.91;58.54;96397.13;10545002;28;20116;-26
2022/09/09 06:17:39;;;;;;;3.90;1.27;;;;;;;21.07;57.97;96398.56;10543937;28;20548;-27
2022/09/09 06:22:40;;;;;;;2.00;0.70;;;;;;;21.07;57.79;96396.84;10553639;28;20073;-27
2022/09/09 06:27:42;;;;;;;1.95;0.80;;;;;;;20.99;57.57;96395.31;10544686;28;20028;-27
2022/09/09 06:32:43;;;;;;;1.92;0.50;;;;;;;20.94;57.52;96395.38;10541183;28;20118;-26
2022/09/09 06:37:48;;;;;;;3.97;0.80;;;;;;;20.93;57.83;96393.69;10532737;28;20039;-25
2022/09/09 06:42:49;;;;;;;1.52;0.60;;;;;;;20.94;57.54;96392.81;10541313;28;20088;-26
2022/09/09 06:48:08;;;;;;;2.53;0.70;;;;;;;20.93;57.54;96396.25;10545777;28;20443;-26
2022/09/09 06:53:09;;;;;;;2.85;0.80;;;;;;;20.93;57.69;96403.88;10543669;28;20122;-26
2022/09/09 06:58:09;;;;;;;4.07;0.90;;;;;;;20.91;57.88;96395.44;10553152;28;20036;-26
2022/09/09 07:03:10;;;;;;;1.88;0.50;;;;;;;21.07;57.54;96416.38;10545112;28;20027;-27
2022/09/09 07:08:11;;;;;;;1.73;0.63;;;;;;;21.16;57.19;96427.28;10550582;28;20032;-26
2022/09/09 07:13:11;;;;;;;1.90;0.60;;;;;;;21.11;57.17;96423.09;10551303;28;20024;-26
2022/09/09 07:18:12;;;;;;;2.47;0.70;;;;;;;21.02;57.70;96423.25;10543849;28;20553;-26
2022/09/09 07:23:12;;;;;;;1.70;0.70;;;;;;;20.98;57.58;96422.44;10552058;28;20123;-26
2022/09/09 07:28:14;;;;;;;1.43;0.67;;;;;;;20.97;57.75;96419.94;10536978;28;20281;-27
2022/09/09 07:33:14;;;;;;;2.30;0.60;;;;;;;20.98;57.99;96431.81;10542101;28;20039;-26
2022/09/09 07:38:15;;;;;;;1.73;0.65;;;;;;;20.96;57.90;96434.34;10532524;28;20043;-26
2022/09/09 07:43:19;;;;;;;1.38;0.35;;;;;;;20.96;57.76;96438.63;10543807;28;20523;-27
2022/09/09 07:48:19;;;;;;;2.65;0.57;;;;;;;21.01;58.02;96447.00;10537210;28;20499;-26
2022/09/09 07:53:20;;;;;;;2.03;0.63;;;;;;;21.16;57.00;96437.47;10538995;28;20035;-26
2022/09/09 07:58:20;;;;;;;2.15;0.50;;;;;;;21.21;57.17;96445.88;10547279;28;20070;-27
2022/09/09 08:03:21;;;;;;;1.70;0.60;;;;;;;21.10;57.17;96452.81;10548988;28;20233;-26
2022/09/09 08:08:22;;;;;;;0.70;0.40;;;;;;;21.03;57.54;96463.97;10548396;28;20712;-26
2022/09/09 08:13:23;;;;;;;1.77;0.80;;;;;;;20.97;57.68;96461.47;10553697;28;20079;-27
2022/09/09 08:18:23;;;;;;;1.00;0.50;;;;;;;21.00;57.60;96469.09;10548623;28;20709;-27
2022/09/09 08:23:25;;;;;;;2.35;0.70;;;;;;;20.99;57.87;96475.03;10552388;28;20024;-26
2022/09/09 08:28:26;;;;;;;1.92;0.57;;;;;;;20.99;57.86;96481.84;10542259;28;20415;-27
2022/09/09 08:33:26;;;;;;;0.95;0.30;;;;;;;20.98;57.72;96470.81;10542039;28;20025;-26
2022/09/09 08:38:28;;;;;;;5.47;0.80;;;;;;;21.10;57.52;96467.25;10537121;28;20036;-25
2022/09/09 08:43:32;;;;;;;2.40;1.23;;;;;;;21.22;56.92;96462.00;10547764;28;20460;-26
2022/09/09 08:49:34;;;;;;;1.52;0.50;;;;;;;21.17;57.26;96456.97;10546620;28;20084;-27
2022/09/09 08:54:36;;;;;;;1.48;0.60;;;;;;;21.06;57.74;96458.81;10398827;28;20750;-26
2022/09/09 08:59:37;;;;;;;0.70;0.40;;;;;;;21.03;57.75;96463.09;10512737;28;20044;-25
2022/09/09 09:05:00;;;;;;;1.25;0.43;;;;;;;21.01;57.81;96470.78;10549515;28;20039;-26
2022/09/09 09:10:16;;;;;;;1.90;0.80;;;;;;;20.99;57.78;96462.31;10546826;28;20649;-26
2022/09/09 09:15:21;;;;;;;1.87;0.57;;;;;;;21.04;57.18;96450.38;10538325;28;20032;-26
2022/09/09 09:20:47;;;;;;;4.38;0.52;;;;;;;20.98;57.77;96452.97;10542509;28;20542;-26
2022/09/09 09:25:49;;;;;;;10.15;1.17;;;;;;;21.10;57.70;96460.47;10547044;28;20104;-26
2022/09/09 09:30:54;;;;;;;4.53;0.95;;;;;;;21.21;57.53;96461.13;10541057;28;20059;-26
2022/09/09 09:35:56;;;;;;;1.70;0.55;;;;;;;21.24;57.50;96461.09;10531542;28;20119;-26
2022/09/09 09:41:00;;;;;;;2.75;0.52;;;;;;;21.14;57.48;96454.44;10538067;28;20122;-26
2022/09/09 09:46:04;;;;;;;7.80;0.80;;;;;;;21.03;58.24;96456.31;10541351;28;20071;-27
2022/09/09 09:51:10;;;;;;;4.40;0.90;;;;;;;21.06;57.93;96458.00;10528573;28;20038;-26
2022/09/09 09:56:14;;;;;;;6.45;1.00;;;;;;;21.06;58.13;96451.16;10539727;28;20525;-25
2022/09/09 10:01:27;;;;;;;18.70;1.43;;;;;;;21.04;58.21;96432.53;10496285;28;1048150;-27
2022/09/09 10:06:36;;;;;;;12.13;1.35;;;;;;;21.04;58.27;96442.72;10547982;28;20523;-28
2022/09/09 10:11:52;;;;;;;12.48;1.40;;;;;;;21.04;58.24;96435.09;10557155;28;20422;-26
2022/09/09 10:17:01;;;;;;;4.43;0.97;;;;;;;21.27;57.70;96440.69;10548042;28;20028;-26
2022/09/09 10:22:27;;;;;;;3.78;0.80;;;;;;;21.32;57.61;96438.91;10553202;28;20047;-26
2022/09/09 10:27:39;;;;;;;9.50;1.10;;;;;;;21.19;57.73;96439.09;10558049;28;20628;-28
2022/09/09 10:33:07;;;;;;;10.60;1.40;;;;;;;21.11;57.87;96418.88;10552536;28;20035;-27
2022/09/09 10:38:15;;;;;;;5.85;1.67;;;;;;;21.09;58.14;96420.59;10537860;28;20047;-26
2022/09/09 10:43:16;;;;;;;7.95;0.95;;;;;;;21.05;58.01;96424.03;10555775;28;20045;-26
2022/09/09 10:48:35;;;;;;;5.18;1.00;;;;;;;21.06;58.22;96435.06;10543727;28;20027;-26
2022/09/09 10:53:52;;;;;;;12.15;1.30;;;;;;;21.04;57.94;96436.81;10541873;28;20035;-26
2022/09/09 10:59:04;;;;;;;4.80;0.88;;;;;;;21.05;58.04;96446.94;10548989;28;20040;-26
2022/09/09 11:04:20;;;;;;;5.80;1.20;;;;;;;21.27;56.98;96437.28;10555473;28;20079;-26
2022/09/09 11:09:30;;;;;;;4.38;0.90;;;;;;;21.34;57.07;96443.97;10548950;28;20110;-26
2022/09/09 11:14:40;;;;;;;3.78;0.73;;;;;;;21.14;57.42;96439.19;10556179;28;20095;-26
2022/09/09 11:19:42;;;;;;;4.57;1.20;;;;;;;21.12;57.83;96440.91;10551762;28;20027;-27
2022/09/09 11:24:50;;;;;;;7.75;0.77;;;;;;;21.09;57.85;96448.59;10547329;28;20548;-26
2022/09/09 11:29:57;;;;;;;3.45;0.80;;;;;;;21.07;57.97;96452.84;10554648;28;20040;-27
2022/09/09 11:35:26;;;;;;;4.40;1.00;;;;;;;21.08;58.13;96446.94;10533685;28;20043;-26
2022/09/09 11:40:28;;;;;;;4.53;0.70;;;;;;;21.06;58.10;96446.09;10553974;28;20039;-26
2022/09/09 11:45:29;;;;;;;8.55;1.45;;;;;;;21.06;58.04;96458.81;10543609;28;20039;-25
2022/09/09 11:50:32;;;;;;;10.50;1.40;;;;;;;21.25;57.52;96461.94;10540693;28;20025;-27
2022/09/09 11:55:34;;;;;;;11.75;1.92;;;;;;;21.36;57.20;96463.47;10551182;28;20244;-25
2022/09/09 12:00:41;;;;;;;4.32;0.63;;;;;;;21.31;57.44;96467.78;10546143;28;20462;-27
2022/09/09 12:05:45;;;;;;;5.03;0.65;;;;;;;21.19;57.77;96456.94;10535503;28;20032;-26
2022/09/09 12:10:55;;;;;;;3.05;0.50;;;;;;;21.14;57.82;96458.72;10552669;28;20120;-26
2022/09/09 12:15:58;;;;;;;2.70;0.70;;;;;;;21.11;58.10;96458.75;10552128;28;20036;-27
2022/09/09 12:21:10;;;;;;;15.95;1.65;;;;;;;21.12;58.08;96450.25;10544275;28;20035;-26
2022/09/09 12:26:47;;;;;;;9.05;0.93;;;;;;;21.12;57.75;96440.06;10538850;28;20078;-29
2022/09/09 12:32:10;;;;;;;6.47;1.00;;;;;;;21.07;58.00;96435.03;10538398;28;20086;-26
2022/09/09 12:37:20;;;;;;;11.25;1.55;;;;;;;21.24;57.90;96444.97;10534682;28;20040;-26
2022/09/09 12:42:22;;;;;;;19.15;1.92;;;;;;;21.38;57.62;96441.34;10552970;28;20040;-26
2022/09/09 12:47:48;;;;;;;19.38;1.65;;;;;;;21.28;57.51;96424.53;10558876;28;20518;-27
2022/09/09 12:52:53;;;;;;;25.58;2.70;;;;;;;21.22;57.85;96431.44;10534122;28;20038;-26
2022/09/09 12:57:53;;;;;;;22.40;2.00;;;;;;;21.16;58.12;96427.28;10557890;28;20086;-27
2022/09/09 13:02:56;;;;;;;26.83;4.00;;;;;;;21.12;58.10;96424.78;10557821;28;20491;-27
2022/09/09 13:08:10;;;;;;;29.05;3.85;;;;;;;21.12;58.22;96425.63;10556187;28;20111;-25
2022/09/09 13:13:21;;;;;;;32.08;3.75;;;;;;;21.12;58.22;96435.81;10561827;28;20036;-27
2022/09/09 13:18:25;;;;;;;36.20;3.95;;;;;;;21.09;58.21;96435.88;10556984;28;20119;-26
2022/09/09 13:23:37;;;;;;;47.30;5.90;;;;;;;21.18;58.83;96420.47;10556902;28;20110;-26
2022/09/09 13:28:37;;;;;;;26.88;4.05;;;;;;;21.37;58.08;96433.72;10557884;28;20039;-26
2022/09/09 13:33:38;;;;;;;17.42;2.35;;;;;;;21.40;57.61;96454.91;10558338;28;20028;-26
2022/09/09 13:38:52;;;;;;;10.73;1.55;;;;;;;21.27;57.70;96466.16;10539200;28;20035;-26
2022/09/09 13:43:55;;;;;;;9.50;2.13;;;;;;;21.14;57.93;96464.63;10549501;28;20093;-26
2022/09/09 13:48:56;;;;;;;5.13;1.38;;;;;;;21.14;58.27;96459.53;10558017;28;20081;-26
2022/09/09 13:53:57;;;;;;;8.00;1.27;;;;;;;21.13;58.15;96457.03;10536480;28;20031;-26
2022/09/09 13:58:58;;;;;;;7.65;1.00;;;;;;;21.08;58.24;96446.06;10543301;28;20042;-26
2022/09/09 14:03:58;;;;;;;3.33;0.98;;;;;;;21.10;58.18;96449.44;10557403;28;20035;-27
2022/09/09 14:08:59;;;;;;;5.18;0.93;;;;;;;21.08;58.28;96434.19;10552426;27;20483;-26
2022/09/09 14:14:00;;;;;;;7.68;1.98;;;;;;;21.29;57.85;96444.03;10558272;28;20032;-27
2022/09/09 14:19:01;;;;;;;7.32;1.17;;;;;;;21.42;57.65;96439.59;10548400;28;20447;-27
2022/09/09 14:24:01;;;;;;;5.80;0.93;;;;;;;21.33;57.50;96430.41;10546931;28;20221;-26
2022/09/09 14:29:02;;;;;;;5.72;1.13;;;;;;;21.25;57.90;96427.16;10552077;28;20032;-26
2022/09/09 14:34:02;;;;;;;3.77;1.30;;;;;;;21.16;58.26;96429.84;10556255;28;20507;-26
2022/09/09 14:39:04;;;;;;;8.80;1.77;;;;;;;21.15;58.02;96438.31;10544988;28;20484;-26
2022/09/09 14:44:04;;;;;;;6.32;1.10;;;;;;;21.13;58.33;96436.69;10554880;28;20372;-26
2022/09/09 14:49:04;;;;;;;5.40;1.20;;;;;;;21.13;58.20;96431.59;10554500;28;20517;-27
2022/09/09 14:54:05;;;;;;;4.13;0.77;;;;;;;21.09;58.39;96423.16;10540697;28;20327;-26
2022/09/09 14:59:05;;;;;;;4.37;1.07;;;;;;;21.21;58.36;96415.31;10542604;28;20039;-26
2022/09/09 15:04:06;;;;;;;5.17;0.90;;;;;;;21.39;57.86;96412.47;10554805;28;20368;-25
2022/09/09 15:09:06;;;;;;;3.15;0.80;;;;;;;21.41;57.60;96422.63;10550279;28;20042;-26
2022/09/09 15:14:08;;;;;;;5.10;0.67;;;;;;;21.29;57.80;96418.56;10551960;28;20043;-26
2022/09/09 15:19:09;;;;;;;2.53;0.65;;;;;;;21.18;58.22;96414.50;10554911;28;20032;-26
2022/09/09 15:24:09;;;;;;;2.80;0.60;;;;;;;21.17;58.24;96417.94;10544359;28;20423;-26
2022/09/09 15:29:10;;;;;;;3.78;0.57;;;;;;;21.13;58.39;96422.22;10546186;28;20290;-26
2022/09/09 15:34:11;;;;;;;1.70;0.60;;;;;;;21.13;58.37;96431.59;10549680;28;20050;-26
2022/09/09 15:39:15;;;;;;;1.05;0.63;;;;;;;21.11;58.74;96421.41;10540162;28;20300;-26
2022/09/09 15:44:16;;;;;;;2.25;0.70;;;;;;;21.09;58.48;96428.25;10553167;28;20089;-26
2022/09/09 15:49:18;;;;;;;2.17;0.73;;;;;;;21.33;57.95;96422.78;10543452;28;20109;-26
2022/09/09 15:54:22;;;;;;;2.72;0.68;;;;;;;21.44;57.79;96423.44;10539245;28;20412;-26
2022/09/09 15:59:24;;;;;;;2.65;0.55;;;;;;;21.34;57.69;96424.44;10548434;28;20036;-26
2022/09/09 16:04:25;;;;;;;3.90;0.57;;;;;;;21.23;57.92;96435.66;10557913;28;20035;-27
2022/09/09 16:09:27;;;;;;;1.90;0.80;;;;;;;21.15;58.32;96430.66;10548366;28;20116;-26
2022/09/09 16:14:28;;;;;;;1.27;0.38;;;;;;;21.13;58.36;96418.84;10557339;28;20487;-25
2022/09/09 16:19:28;;;;;;;1.63;0.55;;;;;;;21.12;58.69;96430.72;10559735;28;20479;-26
2022/09/09 16:24:29;;;;;;;1.70;0.47;;;;;;;21.11;58.50;96429.06;10559756;28;20036;-26
2022/09/09 16:29:29;;;;;;;0.83;0.27;;;;;;;21.10;58.37;96441.78;10556624;28;20036;-26
2022/09/09 16:34:29;;;;;;;1.30;0.83;;;;;;;21.23;58.26;96479.78;10560104;28;20093;-26
2022/09/09 16:39:30;;;;;;;4.63;0.98;;;;;;;21.40;57.42;96494.81;10548349;28;20074;-27
2022/09/09 16:44:30;;;;;;;1.60;0.50;;;;;;;21.35;57.62;96494.88;10558155;28;20040;-26
2022/09/09 16:49:31;;;;;;;1.50;0.60;;;;;;;21.28;57.84;96510.25;10558173;28;20662;-28
2022/09/09 16:54:31;;;;;;;2.03;0.40;;;;;;;21.18;58.19;96517.22;10544792;28;20404;-26
2022/09/09 16:59:32;;;;;;;1.13;0.30;;;;;;;21.15;58.39;96524.88;10558621;28;20323;-27
2022/09/09 17:04:33;;;;;;;0.95;0.45;;;;;;;21.12;58.43;96507.09;10554395;28;20059;-26
2022/09/09 17:09:33;;;;;;;1.23;0.52;;;;;;;21.10;58.48;96498.66;10554598;28;20039;-26
2022/09/09 17:14:34;;;;;;;0.80;0.40;;;;;;;21.08;58.64;96502.94;10557064;28;20035;-26
2022/09/09 17:19:34;;;;;;;0.87;0.57;;;;;;;21.08;58.64;96505.47;10560082;28;20136;-26
2022/09/09 17:24:38;;;;;;;0.88;0.40;;;;;;;21.30;57.98;96511.94;10557234;28;20509;-27
2022/09/09 17:29:38;;;;;;;3.35;0.65;;;;;;;21.42;57.52;96516.88;10545654;28;20024;-27
2022/09/09 17:34:39;;;;;;;1.02;0.40;;;;;;;21.33;57.81;96524.63;10556897;28;20395;-26
2022/09/09 17:39:39;;;;;;;2.17;0.33;;;;;;;21.21;58.12;96517.16;10545444;28;20423;-26
2022/09/09 17:44:41;;;;;;;0.55;0.30;;;;;;;21.14;58.48;96524.91;10552992;27;20386;-26
2022/09/09 17:49:42;;;;;;;0.63;0.38;;;;;;;21.13;58.61;96530.88;10555150;27;20035;-26
2022/09/09 17:54:42;;;;;;;1.00;0.30;;;;;;;21.11;58.65;96525.78;10543013;28;20551;-27
2022/09/09 17:59:43;;;;;;;0.80;0.30;;;;;;;21.10;58.60;96524.09;10553715;28;20043;-26
2022/09/09 18:04:43;;;;;;;1.33;0.50;;;;;;;21.10;58.61;96534.28;10562109;28;20051;-27
2022/09/09 18:09:43;;;;;;;1.57;0.40;;;;;;;21.22;58.31;96518.84;10553381;28;20452;-26
2022/09/09 18:14:44;;;;;;;0.93;0.47;;;;;;;21.36;57.52;96511.84;10546021;28;20039;-27
2022/09/09 18:19:44;;;;;;;3.43;0.70;;;;;;;21.39;57.68;96516.88;10556127;28;20038;-26
2022/09/09 18:24:47;;;;;;;1.43;0.97;;;;;;;21.28;58.08;96528.94;10549905;28;20028;-27
2022/09/09 18:29:47;;;;;;;1.38;0.30;;;;;;;21.20;58.51;96537.53;10555435;28;20036;-27
2022/09/09 18:34:47;;;;;;;0.80;0.30;;;;;;;21.16;58.58;96539.31;10546302;28;20035;-26
2022/09/09 18:39:49;;;;;;;0.88;0.30;;;;;;;21.12;58.47;96547.84;10545921;28;20047;-26
2022/09/09 18:44:49;;;;;;;6.22;1.00;;;;;;;21.08;58.76;96550.44;10554020;28;20036;-26
2022/09/09 18:49:50;;;;;;;3.77;0.77;;;;;;;21.03;58.79;96547.09;10550788;28;20035;-27
2022/09/09 18:54:50;;;;;;;11.02;0.80;;;;;;;21.08;58.57;96555.53;10538258;28;20032;-28
2022/09/09 18:59:53;;;;;;;32.23;2.87;;;;;;;21.30;58.58;96554.41;10537798;27;20043;-29
2022/09/09 19:04:53;;;;;;;8.15;1.50;;;;;;;21.40;58.36;96564.41;10545124;28;20046;-26
2022/09/09 19:09:54;;;;;;;6.83;0.90;;;;;;;21.33;58.24;96573.03;10551662;28;20110;-26
2022/09/09 19:14:54;;;;;;;1.80;0.40;;;;;;;21.22;58.57;96579.13;10539190;28;20028;-26
2022/09/09 19:19:54;;;;;;;2.27;0.53;;;;;;;21.18;58.57;96596.13;10535089;28;20159;-27
2022/09/09 19:24:55;;;;;;;2.27;0.50;;;;;;;21.17;58.53;96597.00;10545273;28;20039;-26
2022/09/09 19:29:55;;;;;;;4.30;0.63;;;;;;;21.15;58.77;96593.59;10548552;27;20039;-26
2022/09/09 19:34:56;;;;;;;2.55;0.52;;;;;;;21.12;58.87;96598.75;10524899;28;20039;-25
2022/09/09 19:39:57;;;;;;;0.30;0.20;;;;;;;21.13;58.73;96602.97;10539540;28;20048;-26
2022/09/09 19:44:57;;;;;;;10.98;1.15;;;;;;;21.17;58.32;96581.72;10534751;28;20131;-26
2022/09/09 19:49:58;;;;;;;1.70;0.80;;;;;;;21.40;58.04;96583.97;10534032;28;20295;-27
2022/09/09 19:54:58;;;;;;;4.90;0.90;;;;;;;21.35;58.16;96585.72;10547755;28;20035;-27
2022/09/09 19:59:59;;;;;;;1.80;0.73;;;;;;;21.25;58.29;96574.84;10550249;28;20035;-27
2022/09/09 20:05:00;;;;;;;2.40;0.75;;;;;;;21.20;58.28;96585.91;10558899;28;20032;-26
2022/09/09 20:10:00;;;;;;;0.40;0.23;;;;;;;21.14;58.63;96584.28;10556962;28;20032;-27
2022/09/09 20:15:00;;;;;;;2.55;0.70;;;;;;;21.36;58.41;96577.22;10554019;28;20064;-26
2022/09/09 20:20:02;;;;;;;2.07;0.60;;;;;;;21.35;57.88;96566.19;10553497;28;20040;-28
2022/09/09 20:25:03;;;;;;;1.20;0.50;;;;;;;21.34;58.03;96573.84;10544026;28;20040;-27
2022/09/09 20:30:04;;;;;;;1.00;0.57;;;;;;;21.21;58.37;96583.34;10559610;28;20424;-27
2022/09/09 20:35:04;;;;;;;1.05;0.20;;;;;;;21.17;58.49;96581.72;10549132;28;20036;-26
2022/09/09 20:40:05;;;;;;;0.80;0.40;;;;;;;21.14;58.56;96581.75;10549842;28;20047;-26
2022/09/09 20:45:07;;;;;;;4.97;1.13;;;;;;;21.16;58.55;96595.31;10548403;28;20379;-26
2022/09/09 20:50:09;;;;;;;2.40;0.50;;;;;;;21.37;57.49;96584.84;10544665;28;20079;-27
2022/09/09 20:55:09;;;;;;;2.80;0.40;;;;;;;21.41;57.42;96581.38;10548313;28;20031;-27
2022/09/09 21:00:10;;;;;;;0.80;0.40;;;;;;;21.32;57.79;96576.41;10536853;28;20036;-26
2022/09/09 21:05:10;;;;;;;0.55;0.30;;;;;;;21.21;58.30;96573.16;10545527;28;20291;-26
2022/09/09 21:10:11;;;;;;;1.77;0.43;;;;;;;21.20;58.38;96589.31;10556133;28;20491;-26
2022/09/09 21:15:11;;;;;;;0.47;0.40;;;;;;;21.16;58.58;96592.78;10557559;28;20051;-27
2022/09/09 21:20:12;;;;;;;1.27;0.43;;;;;;;21.28;57.81;96590.06;10554277;28;20024;-27
2022/09/09 21:25:13;;;;;;;1.55;0.40;;;;;;;21.40;57.07;96594.97;10548848;28;20039;-26
2022/09/09 21:30:13;;;;;;;0.63;0.38;;;;;;;21.38;57.48;96594.16;10550621;28;20032;-27
2022/09/09 21:35:15;;;;;;;0.70;0.20;;;;;;;21.27;57.92;96598.56;10540793;28;20035;-26
2022/09/09 21:40:16;;;;;;;1.27;0.50;;;;;;;21.19;58.38;96600.38;10556123;28;20289;-26
2022/09/09 21:45:18;;;;;;;0.45;0.22;;;;;;;21.16;58.03;96600.41;10549689;28;20047;-27
2022/09/09 21:50:20;;;;;;;1.02;0.40;;;;;;;21.21;57.97;96606.28;10543201;28;20033;-27
2022/09/09 21:55:21;;;;;;;1.17;0.30;;;;;;;21.15;58.50;96598.69;10553244;28;20042;-27
2022/09/09 22:00:23;;;;;;;3.93;1.53;;;;;;;21.38;57.43;96598.44;10553240;28;20039;-25
2022/09/09 22:05:23;;;;;;;3.38;0.60;;;;;;;21.41;57.81;96609.38;10553472;28;20562;-26
2022/09/09 22:10:26;;;;;;;1.90;0.30;;;;;;;21.29;57.99;96589.19;10556227;28;20036;-26
2022/09/09 22:15:28;;;;;;;1.42;0.60;;;;;;;21.22;58.41;96592.69;10550997;28;20050;-26
2022/09/09 22:20:33;;;;;;;1.55;0.40;;;;;;;21.17;58.62;96607.19;10555246;28;20506;-28
2022/09/09 22:25:36;;;;;;;3.83;0.40;;;;;;;21.15;58.64;96592.78;10555547;28;20499;-25
2022/09/09 22:30:37;;;;;;;3.22;1.08;;;;;;;21.14;58.70;96594.47;10549370;28;20559;-26
2022/09/09 22:35:41;;;;;;;3.38;0.65;;;;;;;21.21;58.23;96593.53;10539330;28;20476;-27
2022/09/09 22:40:41;;;;;;;3.58;1.10;;;;;;;21.38;57.10;96599.25;10550306;28;20063;-27
2022/09/09 22:45:42;;;;;;;2.67;0.73;;;;;;;21.37;57.33;96587.38;10552921;28;20154;-26
2022/09/09 22:50:43;;;;;;;1.58;0.57;;;;;;;21.32;57.70;96584.06;10537511;28;20044;-26
2022/09/09 22:55:58;;;;;;;1.92;0.73;;;;;;;21.22;58.22;96592.69;10552365;27;20043;-27
2022/09/09 23:00:59;;;;;;;2.50;0.50;;;;;;;21.16;58.58;96585.13;10552642;28;20406;-27
2022/09/09 23:06:02;;;;;;;1.13;0.28;;;;;;;21.14;58.56;96578.38;10551668;28;20028;-26
2022/09/09 23:11:09;;;;;;;2.10;0.65;;;;;;;21.13;58.49;96581.78;10554430;28;20077;-25
2022/09/09 23:16:15;;;;;;;3.00;0.80;;;;;;;21.22;57.99;96579.94;10552458;28;20032;-26
2022/09/09 23:21:15;;;;;;;1.17;0.50;;;;;;;21.38;56.61;96583.97;10553463;28;20028;-27
2022/09/09 23:26:17;;;;;;;1.13;0.37;;;;;;;21.41;57.06;96585.66;10554547;28;20047;-26
2022/09/09 23:31:21;;;;;;;1.02;0.40;;;;;;;21.30;57.74;96583.22;10549322;28;20316;-27